sensor_id;sensor_type;location;lat;lon;timestamp;pressure;altitude;pressure_sealevel;temperature;humidity
70916;BME280;58557;50.982;-3.222;2022-09-25T00:00:56;101448.09;;;13.96;48.76
70916;BME280;58557;50.982;-3.222;2022-09-25T00:03:23;101449.31;;;13.77;48.72
70916;BME280;58557;50.982;-3.222;2022-09-25T00:05:47;101450.88;;;14.85;47.64
70916;BME280;58557;50.982;-3.222;2022-09-25T00:08:15;101452.68;;;14.62;47.76
70916;BME280;58557;50.982;-3.222;2022-09-25T00:10:39;101452.99;;;13.68;49.63
70916;BME280;58557;50.982;-3.222;2022-09-25T00:13:03;101455.37;;;14.03;49.14
70916;BME280;58557;50.982;-3.222;2022-09-25T00:15:29;101459.72;;;13.37;50.32
70916;BME280;58557;50.982;-3.222;2022-09-25T00:17:55;101466.19;;;12.95;51.08
70916;BME280;58557;50.982;-3.222;2022-09-25T00:20:21;101462.55;;;13.63;50.13
70916;BME280;58557;50.982;-3.222;2022-09-25T00:22:46;101463.65;;;13.59;49.76
70916;BME280;58557;50.982;-3.222;2022-09-25T00:25:12;101463.60;;;14.20;48.76
70916;BME280;58557;50.982;-3.222;2022-09-25T00:27:37;101463.88;;;13.82;49.01
70916;BME280;58557;50.982;-3.222;2022-09-25T00:30:04;101463.27;;;14.45;48.37
70916;BME280;58557;50.982;-3.222;2022-09-25T00:32:28;101465.69;;;14.00;49.09
70916;BME280;58557;50.982;-3.222;2022-09-25T00:34:54;101465.70;;;13.71;48.94
70916;BME280;58557;50.982;-3.222;2022-09-25T00:37:19;101463.58;;;13.56;49.35
70916;BME280;58557;50.982;-3.222;2022-09-25T00:39:45;101459.67;;;13.89;49.54
70916;BME280;58557;50.982;-3.222;2022-09-25T00:42:12;101462.76;;;13.87;49.46
70916;BME280;58557;50.982;-3.222;2022-09-25T00:44:50;101460.28;;;13.45;50.36
70916;BME280;58557;50.982;-3.222;2022-09-25T00:47:01;101460.71;;;13.21;50.57
70916;BME280;58557;50.982;-3.222;2022-09-25T00:49:27;101466.00;;;12.69;52.09
70916;BME280;58557;50.982;-3.222;2022-09-25T00:51:55;101458.45;;;13.51;50.95
70916;BME280;58557;50.982;-3.222;2022-09-25T00:54:20;101458.37;;;13.18;50.88
70916;BME280;58557;50.982;-3.222;2022-09-25T00:56:46;101462.23;;;13.04;51.37
70916;BME280;58557;50.982;-3.222;2022-09-25T00:59:22;101458.58;;;13.50;50.26
70916;BME280;58557;50.982;-3.222;2022-09-25T01:01:33;101460.29;;;14.82;46.94
70916;BME280;58557;50.982;-3.222;2022-09-25T01:04:00;101463.54;;;13.51;48.17
70916;BME280;58557;50.982;-3.222;2022-09-25T01:06:25;101461.96;;;15.49;44.99
70916;BME280;58557;50.982;-3.222;2022-09-25T01:08:50;101461.83;;;15.71;43.34
70916;BME280;58557;50.982;-3.222;2022-09-25T01:11:16;101459.16;;;15.96;43.13
70916;BME280;58557;50.982;-3.222;2022-09-25T01:13:42;101462.72;;;15.73;43.01
70916;BME280;58557;50.982;-3.222;2022-09-25T01:16:12;101465.11;;;15.92;42.85
70916;BME280;58557;50.982;-3.222;2022-09-25T01:18:43;101467.23;;;15.49;43.31
70916;BME280;58557;50.982;-3.222;2022-09-25T01:21:08;101469.22;;;16.04;42.95
70916;BME280;58557;50.982;-3.222;2022-09-25T01:23:34;101470.95;;;15.62;42.82
70916;BME280;58557;50.982;-3.222;2022-09-25T01:25:59;101474.52;;;15.27;43.61
70916;BME280;58557;50.982;-3.222;2022-09-25T01:30:43;101476.57;;;14.86;45.53
70916;BME280;58557;50.982;-3.222;2022-09-25T01:33:12;101472.31;;;15.09;45.11
70916;BME280;58557;50.982;-3.222;2022-09-25T01:35:36;101476.17;;;14.64;46.18
70916;BME280;58557;50.982;-3.222;2022-09-25T01:38:03;101474.78;;;14.73;46.06
70916;BME280;58557;50.982;-3.222;2022-09-25T01:40:26;101476.02;;;13.70;48.13
70916;BME280;58557;50.982;-3.222;2022-09-25T01:42:51;101477.95;;;13.63;48.97
70916;BME280;58557;50.982;-3.222;2022-09-25T01:45:17;101478.88;;;14.49;47.28
70916;BME280;58557;50.982;-3.222;2022-09-25T01:47:41;101477.64;;;13.26;49.62
70916;BME280;58557;50.982;-3.222;2022-09-25T01:50:08;101473.24;;;13.51;49.15
70916;BME280;58557;50.982;-3.222;2022-09-25T01:52:35;101474.18;;;14.34;48.08
70916;BME280;58557;50.982;-3.222;2022-09-25T01:54:59;101474.43;;;14.10;47.56
70916;BME280;58557;50.982;-3.222;2022-09-25T01:57:24;101475.07;;;14.88;46.51
70916;BME280;58557;50.982;-3.222;2022-09-25T01:59:51;101478.63;;;14.75;45.81
70916;BME280;58557;50.982;-3.222;2022-09-25T02:02:16;101483.00;;;14.31;46.16
70916;BME280;58557;50.982;-3.222;2022-09-25T02:04:42;101481.12;;;15.34;44.79
70916;BME280;58557;50.982;-3.222;2022-09-25T02:07:07;101480.52;;;14.85;44.48
70916;BME280;58557;50.982;-3.222;2022-09-25T02:09:34;101477.77;;;15.00;44.83
70916;BME280;58557;50.982;-3.222;2022-09-25T02:11:58;101478.46;;;15.21;44.17
70916;BME280;58557;50.982;-3.222;2022-09-25T02:14:22;101480.52;;;14.07;45.89
70916;BME280;58557;50.982;-3.222;2022-09-25T02:16:50;101483.75;;;14.13;46.58
70916;BME280;58557;50.982;-3.222;2022-09-25T02:19:15;101481.90;;;14.78;45.46
70916;BME280;58557;50.982;-3.222;2022-09-25T02:21:47;101482.20;;;15.16;44.61
70916;BME280;58557;50.982;-3.222;2022-09-25T02:24:09;101484.59;;;15.20;44.28
70916;BME280;58557;50.982;-3.222;2022-09-25T02:26:31;101483.94;;;15.18;43.77
70916;BME280;58557;50.982;-3.222;2022-09-25T02:28:55;101478.61;;;15.64;42.85
70916;BME280;58557;50.982;-3.222;2022-09-25T02:31:22;101483.88;;;15.58;42.55
70916;BME280;58557;50.982;-3.222;2022-09-25T02:33:45;101484.29;;;15.87;42.56
70916;BME280;58557;50.982;-3.222;2022-09-25T02:36:16;101487.50;;;15.90;42.16
70916;BME280;58557;50.982;-3.222;2022-09-25T02:38:36;101490.99;;;15.88;42.15
70916;BME280;58557;50.982;-3.222;2022-09-25T02:41:08;101494.53;;;15.42;43.18
70916;BME280;58557;50.982;-3.222;2022-09-25T02:43:35;101491.46;;;15.30;42.38
70916;BME280;58557;50.982;-3.222;2022-09-25T02:46:00;101497.11;;;16.11;41.28
70916;BME280;58557;50.982;-3.222;2022-09-25T02:48:21;101497.94;;;15.79;41.30
70916;BME280;58557;50.982;-3.222;2022-09-25T02:50:49;101498.16;;;15.41;41.91
70916;BME280;58557;50.982;-3.222;2022-09-25T02:53:14;101499.88;;;16.14;41.44
70916;BME280;58557;50.982;-3.222;2022-09-25T02:55:39;101497.89;;;15.65;41.84
70916;BME280;58557;50.982;-3.222;2022-09-25T02:58:04;101497.50;;;15.57;41.88
70916;BME280;58557;50.982;-3.222;2022-09-25T03:00:26;101494.12;;;15.67;41.64
70916;BME280;58557;50.982;-3.222;2022-09-25T03:02:53;101495.24;;;15.82;41.33
70916;BME280;58557;50.982;-3.222;2022-09-25T03:05:17;101489.08;;;15.70;40.99
70916;BME280;58557;50.982;-3.222;2022-09-25T03:07:42;101491.37;;;16.04;40.65
70916;BME280;58557;50.982;-3.222;2022-09-25T03:10:08;101490.32;;;16.50;39.97
70916;BME280;58557;50.982;-3.222;2022-09-25T03:12:35;101485.37;;;14.65;42.85
70916;BME280;58557;50.982;-3.222;2022-09-25T03:14:58;101485.91;;;14.71;42.71
70916;BME280;58557;50.982;-3.222;2022-09-25T03:17:24;101483.82;;;15.66;41.24
70916;BME280;58557;50.982;-3.222;2022-09-25T03:19:50;101479.15;;;16.06;40.46
70916;BME280;58557;50.982;-3.222;2022-09-25T03:22:15;101477.17;;;15.75;40.69
70916;BME280;58557;50.982;-3.222;2022-09-25T03:24:40;101474.86;;;15.26;41.54
70916;BME280;58557;50.982;-3.222;2022-09-25T03:27:06;101476.43;;;15.90;41.14
70916;BME280;58557;50.982;-3.222;2022-09-25T03:29:31;101477.05;;;15.52;40.77
70916;BME280;58557;50.982;-3.222;2022-09-25T03:31:56;101477.53;;;15.80;40.66
70916;BME280;58557;50.982;-3.222;2022-09-25T03:34:22;101473.43;;;15.64;41.01
70916;BME280;58557;50.982;-3.222;2022-09-25T03:36:47;101475.80;;;15.41;41.05
70916;BME280;58557;50.982;-3.222;2022-09-25T03:39:14;101481.32;;;14.85;41.43
70916;BME280;58557;50.982;-3.222;2022-09-25T03:41:38;101476.35;;;15.57;40.94
70916;BME280;58557;50.982;-3.222;2022-09-25T03:44:04;101474.05;;;15.46;40.93
70916;BME280;58557;50.982;-3.222;2022-09-25T03:46:31;101476.06;;;15.38;40.76
70916;BME280;58557;50.982;-3.222;2022-09-25T03:48:56;101476.25;;;15.83;40.44
70916;BME280;58557;50.982;-3.222;2022-09-25T03:51:21;101475.93;;;15.07;40.54
70916;BME280;58557;50.982;-3.222;2022-09-25T03:53:47;101473.42;;;15.23;41.09
70916;BME280;58557;50.982;-3.222;2022-09-25T03:56:12;101468.99;;;15.07;40.67
70916;BME280;58557;50.982;-3.222;2022-09-25T03:58:35;101467.29;;;15.01;41.43
70916;BME280;58557;50.982;-3.222;2022-09-25T04:01:01;101467.12;;;14.87;41.89
70916;BME280;58557;50.982;-3.222;2022-09-25T04:03:29;101469.40;;;14.43;43.31
70916;BME280;58557;50.982;-3.222;2022-09-25T04:05:52;101467.57;;;13.71;45.01
70916;BME280;58557;50.982;-3.222;2022-09-25T04:08:16;101469.16;;;14.20;43.63
70916;BME280;58557;50.982;-3.222;2022-09-25T04:10:42;101469.80;;;14.40;44.19
70916;BME280;58557;50.982;-3.222;2022-09-25T04:13:09;101468.53;;;14.57;43.66
70916;BME280;58557;50.982;-3.222;2022-09-25T04:15:34;101464.74;;;14.80;43.25
70916;BME280;58557;50.982;-3.222;2022-09-25T04:17:59;101464.14;;;15.30;42.59
70916;BME280;58557;50.982;-3.222;2022-09-25T04:20:25;101463.91;;;14.59;42.80
70916;BME280;58557;50.982;-3.222;2022-09-25T04:22:50;101467.76;;;14.92;42.10
70916;BME280;58557;50.982;-3.222;2022-09-25T04:25:16;101471.68;;;14.40;42.03
70916;BME280;58557;50.982;-3.222;2022-09-25T04:27:41;101473.45;;;13.36;44.47
70916;BME280;58557;50.982;-3.222;2022-09-25T04:30:07;101474.07;;;13.67;43.91
70916;BME280;58557;50.982;-3.222;2022-09-25T04:32:32;101471.88;;;14.09;43.89
70916;BME280;58557;50.982;-3.222;2022-09-25T04:34:57;101469.61;;;14.78;42.22
70916;BME280;58557;50.982;-3.222;2022-09-25T04:37:23;101469.14;;;14.27;42.26
70916;BME280;58557;50.982;-3.222;2022-09-25T04:39:48;101466.42;;;15.24;41.27
70916;BME280;58557;50.982;-3.222;2022-09-25T04:42:14;101461.86;;;14.56;42.06
70916;BME280;58557;50.982;-3.222;2022-09-25T04:44:39;101460.85;;;14.89;41.70
70916;BME280;58557;50.982;-3.222;2022-09-25T04:47:05;101460.81;;;13.63;43.56
70916;BME280;58557;50.982;-3.222;2022-09-25T04:49:30;101460.93;;;14.73;42.30
70916;BME280;58557;50.982;-3.222;2022-09-25T04:51:56;101465.79;;;13.92;42.90
70916;BME280;58557;50.982;-3.222;2022-09-25T04:54:22;101467.78;;;14.04;43.95
70916;BME280;58557;50.982;-3.222;2022-09-25T04:56:47;101468.56;;;14.02;44.06
70916;BME280;58557;50.982;-3.222;2022-09-25T04:59:13;101467.84;;;13.48;45.54
70916;BME280;58557;50.982;-3.222;2022-09-25T05:01:38;101468.63;;;13.59;45.39
70916;BME280;58557;50.982;-3.222;2022-09-25T05:04:03;101474.25;;;12.35;46.67
70916;BME280;58557;50.982;-3.222;2022-09-25T05:06:28;101481.84;;;12.62;47.53
70916;BME280;58557;50.982;-3.222;2022-09-25T05:08:54;101486.43;;;13.12;48.14
70916;BME280;58557;50.982;-3.222;2022-09-25T05:11:20;101487.01;;;13.00;48.69
70916;BME280;58557;50.982;-3.222;2022-09-25T05:13:48;101483.90;;;13.18;47.51
70916;BME280;58557;50.982;-3.222;2022-09-25T05:16:10;101486.07;;;11.96;48.90
70916;BME280;58557;50.982;-3.222;2022-09-25T05:18:37;101484.54;;;13.64;46.01
70916;BME280;58557;50.982;-3.222;2022-09-25T05:21:03;101487.66;;;14.45;43.65
70916;BME280;58557;50.982;-3.222;2022-09-25T05:23:28;101488.45;;;14.30;43.28
70916;BME280;58557;50.982;-3.222;2022-09-25T05:25:54;101491.11;;;14.12;42.92
70916;BME280;58557;50.982;-3.222;2022-09-25T05:28:18;101494.71;;;14.59;42.45
70916;BME280;58557;50.982;-3.222;2022-09-25T05:30:43;101498.00;;;14.32;43.03
70916;BME280;58557;50.982;-3.222;2022-09-25T05:33:08;101501.31;;;13.07;44.60
70916;BME280;58557;50.982;-3.222;2022-09-25T05:35:33;101503.47;;;12.81;44.89
70916;BME280;58557;50.982;-3.222;2022-09-25T05:37:58;101497.86;;;13.92;43.51
70916;BME280;58557;50.982;-3.222;2022-09-25T05:40:24;101496.77;;;13.34;44.74
70916;BME280;58557;50.982;-3.222;2022-09-25T05:42:50;101493.16;;;13.09;44.27
70916;BME280;58557;50.982;-3.222;2022-09-25T05:45:16;101496.82;;;13.30;44.22
70916;BME280;58557;50.982;-3.222;2022-09-25T05:47:41;101502.46;;;11.75;46.63
70916;BME280;58557;50.982;-3.222;2022-09-25T05:50:08;101504.53;;;12.83;44.65
70916;BME280;58557;50.982;-3.222;2022-09-25T05:52:31;101504.56;;;13.75;43.52
70916;BME280;58557;50.982;-3.222;2022-09-25T05:54:56;101505.90;;;13.60;44.37
70916;BME280;58557;50.982;-3.222;2022-09-25T05:57:22;101502.40;;;13.06;44.95
70916;BME280;58557;50.982;-3.222;2022-09-25T05:59:46;101498.14;;;13.20;44.80
70916;BME280;58557;50.982;-3.222;2022-09-25T06:02:12;101505.07;;;12.61;46.39
70916;BME280;58557;50.982;-3.222;2022-09-25T06:04:37;101497.30;;;13.35;44.92
70916;BME280;58557;50.982;-3.222;2022-09-25T06:07:02;101497.98;;;14.15;42.71
70916;BME280;58557;50.982;-3.222;2022-09-25T06:09:27;101498.09;;;14.53;42.31
70916;BME280;58557;50.982;-3.222;2022-09-25T06:11:52;101497.11;;;14.18;42.91
70916;BME280;58557;50.982;-3.222;2022-09-25T06:14:17;101498.16;;;14.41;42.69
70916;BME280;58557;50.982;-3.222;2022-09-25T06:16:45;101496.75;;;13.80;42.72
70916;BME280;58557;50.982;-3.222;2022-09-25T06:19:08;101502.05;;;13.63;44.30
70916;BME280;58557;50.982;-3.222;2022-09-25T06:21:34;101500.86;;;13.47;43.79
70916;BME280;58557;50.982;-3.222;2022-09-25T06:23:59;101498.37;;;13.55;44.17
70916;BME280;58557;50.982;-3.222;2022-09-25T06:26:24;101502.26;;;13.68;44.07
70916;BME280;58557;50.982;-3.222;2022-09-25T06:28:50;101502.97;;;13.22;45.36
70916;BME280;58557;50.982;-3.222;2022-09-25T06:31:15;101506.57;;;13.51;44.89
70916;BME280;58557;50.982;-3.222;2022-09-25T06:33:40;101512.08;;;14.17;44.26
70916;BME280;58557;50.982;-3.222;2022-09-25T06:36:06;101512.14;;;14.78;42.93
70916;BME280;58557;50.982;-3.222;2022-09-25T06:38:31;101510.25;;;15.00;42.09
70916;BME280;58557;50.982;-3.222;2022-09-25T06:40:58;101511.82;;;15.12;41.95
70916;BME280;58557;50.982;-3.222;2022-09-25T06:43:22;101511.71;;;15.34;41.84
70916;BME280;58557;50.982;-3.222;2022-09-25T06:45:47;101512.51;;;15.50;41.86
70916;BME280;58557;50.982;-3.222;2022-09-25T06:48:14;101507.93;;;15.25;42.04
70916;BME280;58557;50.982;-3.222;2022-09-25T06:50:41;101502.46;;;16.05;40.89
70916;BME280;58557;50.982;-3.222;2022-09-25T06:53:05;101500.60;;;15.91;40.78
70916;BME280;58557;50.982;-3.222;2022-09-25T06:55:31;101498.36;;;16.08;40.86
70916;BME280;58557;50.982;-3.222;2022-09-25T06:57:55;101493.75;;;16.17;40.88
70916;BME280;58557;50.982;-3.222;2022-09-25T07:00:21;101491.91;;;16.24;40.73
70916;BME280;58557;50.982;-3.222;2022-09-25T07:02:46;101492.41;;;15.87;40.79
70916;BME280;58557;50.982;-3.222;2022-09-25T07:05:12;101494.15;;;17.05;39.64
70916;BME280;58557;50.982;-3.222;2022-09-25T07:07:37;101490.54;;;15.93;41.14
70916;BME280;58557;50.982;-3.222;2022-09-25T07:10:04;101491.65;;;16.15;41.16
70916;BME280;58557;50.982;-3.222;2022-09-25T07:12:28;101493.62;;;16.55;40.88
70916;BME280;58557;50.982;-3.222;2022-09-25T07:14:54;101496.46;;;16.75;40.47
70916;BME280;58557;50.982;-3.222;2022-09-25T07:17:19;101491.75;;;17.12;40.04
70916;BME280;58557;50.982;-3.222;2022-09-25T07:19:45;101485.27;;;17.97;39.95
70916;BME280;58557;50.982;-3.222;2022-09-25T07:22:11;101485.39;;;18.63;37.35
70916;BME280;58557;50.982;-3.222;2022-09-25T07:24:37;101484.50;;;19.09;36.59
70916;BME280;58557;50.982;-3.222;2022-09-25T07:27:03;101483.39;;;19.45;37.16
70916;BME280;58557;50.982;-3.222;2022-09-25T07:29:28;101484.35;;;19.46;36.58
70916;BME280;58557;50.982;-3.222;2022-09-25T07:31:54;101486.06;;;20.04;35.95
70916;BME280;58557;50.982;-3.222;2022-09-25T07:34:20;101483.35;;;20.25;34.91
70916;BME280;58557;50.982;-3.222;2022-09-25T07:36:46;101483.50;;;20.93;34.09
70916;BME280;58557;50.982;-3.222;2022-09-25T07:39:12;101481.27;;;20.78;33.96
70916;BME280;58557;50.982;-3.222;2022-09-25T07:41:37;101485.59;;;21.03;33.56
70916;BME280;58557;50.982;-3.222;2022-09-25T07:44:03;101485.55;;;21.29;33.87
70916;BME280;58557;50.982;-3.222;2022-09-25T07:46:29;101483.63;;;21.93;32.80
70916;BME280;58557;50.982;-3.222;2022-09-25T07:48:54;101482.61;;;21.57;32.30
70916;BME280;58557;50.982;-3.222;2022-09-25T07:51:20;101480.04;;;22.54;31.16
70916;BME280;58557;50.982;-3.222;2022-09-25T07:53:46;101484.79;;;22.75;30.78
70916;BME280;58557;50.982;-3.222;2022-09-25T07:56:12;101482.18;;;23.20;30.07
70916;BME280;58557;50.982;-3.222;2022-09-25T07:58:37;101481.64;;;22.38;30.49
70916;BME280;58557;50.982;-3.222;2022-09-25T08:01:05;101490.98;;;21.49;31.86
70916;BME280;58557;50.982;-3.222;2022-09-25T08:03:29;101494.43;;;21.11;33.13
70916;BME280;58557;50.982;-3.222;2022-09-25T08:05:58;101500.31;;;21.33;33.17
70916;BME280;58557;50.982;-3.222;2022-09-25T08:08:20;101502.25;;;21.85;31.26
70916;BME280;58557;50.982;-3.222;2022-09-25T08:10:46;101505.39;;;22.33;30.91
70916;BME280;58557;50.982;-3.222;2022-09-25T08:13:11;101501.43;;;20.65;33.71
70916;BME280;58557;50.982;-3.222;2022-09-25T08:15:37;101501.01;;;20.52;34.26
70916;BME280;58557;50.982;-3.222;2022-09-25T08:18:03;101501.40;;;20.99;33.76
70916;BME280;58557;50.982;-3.222;2022-09-25T08:20:29;101507.56;;;21.06;33.49
70916;BME280;58557;50.982;-3.222;2022-09-25T08:22:54;101507.12;;;20.80;32.89
70916;BME280;58557;50.982;-3.222;2022-09-25T08:25:20;101504.00;;;20.70;34.15
70916;BME280;58557;50.982;-3.222;2022-09-25T08:27:46;101505.35;;;20.80;33.52
70916;BME280;58557;50.982;-3.222;2022-09-25T08:30:12;101508.77;;;20.82;34.05
70916;BME280;58557;50.982;-3.222;2022-09-25T08:32:37;101515.54;;;21.09;32.89
70916;BME280;58557;50.982;-3.222;2022-09-25T08:35:03;101520.10;;;19.52;34.83
70916;BME280;58557;50.982;-3.222;2022-09-25T08:37:29;101524.82;;;20.69;33.84
70916;BME280;58557;50.982;-3.222;2022-09-25T08:39:54;101525.38;;;20.12;34.65
70916;BME280;58557;50.982;-3.222;2022-09-25T08:42:25;101521.66;;;20.53;34.93
70916;BME280;58557;50.982;-3.222;2022-09-25T08:44:48;101521.27;;;20.23;33.80
70916;BME280;58557;50.982;-3.222;2022-09-25T08:47:16;101517.37;;;20.17;34.60
70916;BME280;58557;50.982;-3.222;2022-09-25T08:49:40;101517.44;;;20.63;34.34
70916;BME280;58557;50.982;-3.222;2022-09-25T08:52:05;101518.50;;;19.56;35.90
70916;BME280;58557;50.982;-3.222;2022-09-25T08:54:30;101515.77;;;19.84;35.92
70916;BME280;58557;50.982;-3.222;2022-09-25T08:56:58;101518.06;;;19.22;36.26
70916;BME280;58557;50.982;-3.222;2022-09-25T08:59:24;101519.86;;;19.88;35.27
70916;BME280;58557;50.982;-3.222;2022-09-25T09:01:48;101519.44;;;19.67;35.59
70916;BME280;58557;50.982;-3.222;2022-09-25T09:04:17;101518.57;;;18.65;36.45
70916;BME280;58557;50.982;-3.222;2022-09-25T09:06:38;101518.63;;;19.76;35.41
70916;BME280;58557;50.982;-3.222;2022-09-25T09:09:07;101516.89;;;18.73;35.54
70916;BME280;58557;50.982;-3.222;2022-09-25T09:11:32;101511.34;;;18.17;35.93
70916;BME280;58557;50.982;-3.222;2022-09-25T09:14:00;101514.27;;;17.69;36.45
70916;BME280;58557;50.982;-3.222;2022-09-25T09:16:33;101512.06;;;17.33;37.98
70916;BME280;58557;50.982;-3.222;2022-09-25T09:18:45;101511.06;;;17.03;39.22
70916;BME280;58557;50.982;-3.222;2022-09-25T09:21:15;101509.39;;;17.04;39.69
70916;BME280;58557;50.982;-3.222;2022-09-25T09:23:44;101508.59;;;17.51;39.29
70916;BME280;58557;50.982;-3.222;2022-09-25T09:26:04;101511.24;;;16.92;38.71
70916;BME280;58557;50.982;-3.222;2022-09-25T09:28:43;101511.99;;;16.88;39.38
70916;BME280;58557;50.982;-3.222;2022-09-25T09:31:00;101510.50;;;17.04;39.18
70916;BME280;58557;50.982;-3.222;2022-09-25T09:33:31;101510.45;;;18.08;37.32
70916;BME280;58557;50.982;-3.222;2022-09-25T09:35:51;101505.09;;;18.20;36.10
70916;BME280;58557;50.982;-3.222;2022-09-25T09:38:19;101510.37;;;17.64;36.75
70916;BME280;58557;50.982;-3.222;2022-09-25T09:40:48;101502.74;;;19.00;35.46
70916;BME280;58557;50.982;-3.222;2022-09-25T09:43:09;101497.91;;;18.47;35.83
70916;BME280;58557;50.982;-3.222;2022-09-25T09:45:32;101496.66;;;18.54;36.49
70916;BME280;58557;50.982;-3.222;2022-09-25T09:47:59;101489.87;;;18.38;36.25
70916;BME280;58557;50.982;-3.222;2022-09-25T09:50:25;101484.56;;;18.59;35.55
70916;BME280;58557;50.982;-3.222;2022-09-25T09:52:46;101484.00;;;19.43;34.24
70916;BME280;58557;50.982;-3.222;2022-09-25T09:55:19;101479.19;;;18.47;34.66
70916;BME280;58557;50.982;-3.222;2022-09-25T09:57:43;101481.42;;;17.73;36.73
70916;BME280;58557;50.982;-3.222;2022-09-25T10:00:04;101475.25;;;17.78;37.13
70916;BME280;58557;50.982;-3.222;2022-09-25T10:02:31;101467.93;;;18.91;35.09
70916;BME280;58557;50.982;-3.222;2022-09-25T10:04:53;101462.86;;;19.63;33.77
70916;BME280;58557;50.982;-3.222;2022-09-25T10:07:18;101460.48;;;19.89;33.37
70916;BME280;58557;50.982;-3.222;2022-09-25T10:09:44;101460.05;;;20.78;32.09
70916;BME280;58557;50.982;-3.222;2022-09-25T10:12:13;101462.22;;;19.85;32.30
70916;BME280;58557;50.982;-3.222;2022-09-25T10:14:38;101462.68;;;18.88;33.39
70916;BME280;58557;50.982;-3.222;2022-09-25T10:17:00;101455.98;;;19.45;31.52
70916;BME280;58557;50.982;-3.222;2022-09-25T10:19:28;101450.50;;;19.73;32.33
70916;BME280;58557;50.982;-3.222;2022-09-25T10:21:56;101447.44;;;19.81;30.66
70916;BME280;58557;50.982;-3.222;2022-09-25T10:26:43;101440.02;;;20.05;29.91
70916;BME280;58557;50.982;-3.222;2022-09-25T10:31:36;101436.11;;;18.71;29.80
70916;BME280;58557;50.982;-3.222;2022-09-25T10:34:02;101434.35;;;18.64;30.99
70916;BME280;58557;50.982;-3.222;2022-09-25T10:36:31;101434.98;;;18.19;31.83
70916;BME280;58557;50.982;-3.222;2022-09-25T10:38:51;101428.20;;;19.03;30.61
70916;BME280;58557;50.982;-3.222;2022-09-25T10:41:18;101426.06;;;18.72;26.90
70916;BME280;58557;50.982;-3.222;2022-09-25T10:43:52;101423.39;;;19.53;26.88
70916;BME280;58557;50.982;-3.222;2022-09-25T10:46:12;101420.64;;;19.00;26.75
70916;BME280;58557;50.982;-3.222;2022-09-25T10:48:35;101422.94;;;20.48;26.07
70916;BME280;58557;50.982;-3.222;2022-09-25T10:51:06;101421.00;;;20.21;26.11
70916;BME280;58557;50.982;-3.222;2022-09-25T10:53:26;101420.41;;;20.63;26.14
70916;BME280;58557;50.982;-3.222;2022-09-25T10:55:51;101411.26;;;18.86;28.00
70916;BME280;58557;50.982;-3.222;2022-09-25T10:58:20;101410.47;;;19.87;25.91
70916;BME280;58557;50.982;-3.222;2022-09-25T11:00:51;101408.58;;;18.89;27.04
70916;BME280;58557;50.982;-3.222;2022-09-25T11:03:14;101411.93;;;18.77;27.31
70916;BME280;58557;50.982;-3.222;2022-09-25T11:05:34;101409.59;;;19.26;27.65
70916;BME280;58557;50.982;-3.222;2022-09-25T11:08:01;101395.91;;;20.59;25.68
70916;BME280;58557;50.982;-3.222;2022-09-25T11:10:26;101393.06;;;21.50;25.32
70916;BME280;58557;50.982;-3.222;2022-09-25T11:12:51;101391.30;;;20.20;27.06
70916;BME280;58557;50.982;-3.222;2022-09-25T11:15:18;101382.74;;;18.80;30.37
70916;BME280;58557;50.982;-3.222;2022-09-25T11:17:43;101385.26;;;20.31;29.81
70916;BME280;58557;50.982;-3.222;2022-09-25T11:22:34;101383.76;;;19.44;29.31
70916;BME280;58557;50.982;-3.222;2022-09-25T11:25:03;101377.98;;;18.94;30.52
70916;BME280;58557;50.982;-3.222;2022-09-25T11:27:31;101378.35;;;18.21;31.72
70916;BME280;58557;50.982;-3.222;2022-09-25T11:30:03;101381.12;;;17.36;33.50
70916;BME280;58557;50.982;-3.222;2022-09-25T11:32:21;101376.69;;;17.96;32.59
70916;BME280;58557;50.982;-3.222;2022-09-25T11:34:55;101373.60;;;18.01;32.58
70916;BME280;58557;50.982;-3.222;2022-09-25T11:37:15;101372.99;;;18.52;32.20
70916;BME280;58557;50.982;-3.222;2022-09-25T11:39:37;101372.24;;;18.37;32.55
70916;BME280;58557;50.982;-3.222;2022-09-25T11:42:03;101368.17;;;18.61;32.01
70916;BME280;58557;50.982;-3.222;2022-09-25T11:44:28;101366.54;;;19.02;31.76
70916;BME280;58557;50.982;-3.222;2022-09-25T11:46:56;101359.40;;;18.56;33.05
70916;BME280;58557;50.982;-3.222;2022-09-25T11:49:19;101357.12;;;18.76;32.53
70916;BME280;58557;50.982;-3.222;2022-09-25T11:51:54;101348.60;;;19.17;32.71
70916;BME280;58557;50.982;-3.222;2022-09-25T11:54:15;101354.70;;;20.30;31.22
70916;BME280;58557;50.982;-3.222;2022-09-25T11:56:37;101353.52;;;19.83;30.53
70916;BME280;58557;50.982;-3.222;2022-09-25T11:59:11;101351.51;;;20.13;30.50
70916;BME280;58557;50.982;-3.222;2022-09-25T12:01:30;101347.22;;;19.67;30.06
70916;BME280;58557;50.982;-3.222;2022-09-25T12:04:04;101348.13;;;17.76;32.58
70916;BME280;58557;50.982;-3.222;2022-09-25T12:06:27;101342.84;;;18.28;31.95
70916;BME280;58557;50.982;-3.222;2022-09-25T12:08:52;101341.64;;;19.22;31.70
70916;BME280;58557;50.982;-3.222;2022-09-25T12:11:11;101336.70;;;19.61;31.05
70916;BME280;58557;50.982;-3.222;2022-09-25T12:13:37;101334.42;;;18.32;32.86
70916;BME280;58557;50.982;-3.222;2022-09-25T12:16:05;101332.74;;;19.21;31.22
70916;BME280;58557;50.982;-3.222;2022-09-25T12:18:36;101327.24;;;19.41;31.44
70916;BME280;58557;50.982;-3.222;2022-09-25T12:20:51;101322.35;;;19.38;30.66
70916;BME280;58557;50.982;-3.222;2022-09-25T12:23:21;101319.46;;;20.25;30.37
70916;BME280;58557;50.982;-3.222;2022-09-25T12:25:49;101324.35;;;19.39;31.05
70916;BME280;58557;50.982;-3.222;2022-09-25T12:28:12;101320.53;;;19.88;31.32
70916;BME280;58557;50.982;-3.222;2022-09-25T12:30:37;101318.71;;;19.62;31.68
70916;BME280;58557;50.982;-3.222;2022-09-25T12:33:05;101325.00;;;19.89;31.06
70916;BME280;58557;50.982;-3.222;2022-09-25T12:35:32;101323.16;;;18.74;32.70
70916;BME280;58557;50.982;-3.222;2022-09-25T12:37:50;101318.64;;;19.21;32.43
70916;BME280;58557;50.982;-3.222;2022-09-25T12:40:20;101319.56;;;19.40;32.40